Flight Track Log - Related Links

Times and Time Zones

All times are in EST time to prevent confusion due to time zone crossing. See the QXE2227 flight status page for this flight to view local times or setup timezone preferences in your user account.

Time Position Orientation Groundspeed Altitude Reporting Facility
EST Latitude Longitude Course Direction KTS MPH feet Rate Location/Type
Fri 09:20:00 AM 48.4807 -122.9728 172° South  Level FlightAware Approximate
Fri 09:21:00 AM 48.4093 -122.9514 166° South  Level FlightAware Approximate
Fri 09:22:00 AM 48.3386 -122.9249 166° South  Level FlightAware Approximate
Fri 09:23:00 AM 48.2667 -122.9023 169° South  Level FlightAware Approximate
Fri 09:24:00 AM 48.1946 -122.8817 169° South  Level FlightAware Approximate
Fri 09:25:00 AM 48.1402 -122.8662 169° South  Level FlightAware Approximate
Fri 09:26:00 AM 48.0858 -122.8507 169° South  Level FlightAware Approximate
Fri 09:27:00 AM 48.0324 -122.8314 127° Southeast  Level FlightAware Approximate
Fri 09:28:00 AM 47.9990 -122.7656 146° Southeast  Level FlightAware Approximate
Fri 09:29:00 AM 47.9670 -122.7011 116° Southeast  Level FlightAware Approximate
Fri 09:30:00 AM 47.9221 -122.6219 130° Southeast  Level FlightAware Approximate
Fri 09:31:00 AM 47.8763 -122.5437 132° Southeast  Level FlightAware Approximate
Fri 09:32:00 AM 47.8287 -122.4680 135° Southeast  Level FlightAware Approximate
Fri 09:33:00 AM 47.7730 -122.4064 146° Southeast  Level FlightAware Approximate
Fri 09:34:00 AM 47.7116 -122.3667 180° South  Level FlightAware Approximate
Fri 09:35:00 AM 47.6438 -122.3500 180° South  Level FlightAware Approximate
Fri 09:36:00 AM 47.5755 -122.3318 172° South  Level FlightAware Approximate
Fri 09:37:00 AM 47.5065 -122.3180 172° South  Level FlightAware Approximate
Fri 09:38:00 AM 47.4499 -122.3118 170° South  Level Estimated
Fri 09:39:00 AM 47.4499 -122.3118 170° South  Level Estimated
Fri 09:40:00 AM 47.4499 -122.3118 151° Southeast  Level Estimated
Fri 09:41:00 AM 47.4499 -122.3118 151° Southeast  Level Estimated
Fri 09:42:00 AM 47.4499 -122.3118 151° Southeast  Level Estimated
Fri 09:43:00 AM 47.4499 -122.3118 151° Southeast  Level Estimated
Fri 09:44:00 AM 47.4499 -122.3118 151° Southeast  Level Estimated
Fri 09:45:00 AM 47.4499 -122.3118 151° Southeast  Level Estimated
Fri 09:46:00 AM 47.4499 -122.3118 151° Southeast  Level Estimated
Fri 09:47:00 AM 47.4499 -122.3118 191° South  Level Estimated
Fri 09:48:00 AM 47.4499 -122.3118 191° South  Level Estimated
Fri 09:49:00 AM 47.4499 -122.3118 15° North  Level Estimated
Fri 09:50:00 AM 47.4499 -122.3118 154° Southeast  Level Estimated
Fri 09:51:00 AM 47.4499 -122.3118 15° North  Level Estimated
Fri 09:52:00 AM 47.4499 -122.3118 15° North  Level Estimated
Fri 09:53:00 AM 47.4499 -122.3118 15° North  Level Estimated
Fri 09:54:00 AM 47.4499 -122.3118 15° North  Level Estimated
Fri 09:55:00 AM 47.4499 -122.3118 15° North  Level Estimated

Login

Don't have an account? Register now (free) for customized features, flight alerts, and more!